Time;durP1;ratioP1;P1;durP2;ratioP2;P2;SDS_P1;SDS_P2;PMS_P1;PMS_P2;Temp;Humidity;BMP_temperature;BMP_pressure;BME280_temperature;BME280_humidity;BME280_pressure;Samples;Min_cycle;Max_cycle;Signal;HPM_P1;HPM_P2
2022/03/30 00:01:19;;;;;;;18.30;11.78;;;;;;;20.59;50.48;97644.28;1802604;79;27361;-85
2022/03/30 00:03:45;;;;;;;18.87;11.28;;;;;;;20.59;50.43;97645.67;1802734;78;25187;-84
2022/03/30 00:06:11;;;;;;;20.02;11.63;;;;;;;20.59;50.31;97647.07;1802522;79;25455;-83
2022/03/30 00:08:37;;;;;;;18.07;11.40;;;;;;;20.56;50.36;97645.28;1802546;78;25729;-83
2022/03/30 00:11:03;;;;;;;18.25;12.00;;;;;;;20.55;50.28;97645.69;1802839;79;25663;-83
2022/03/30 00:13:29;;;;;;;19.48;11.63;;;;;;;20.54;50.29;97644.11;1803940;79;28216;-84
2022/03/30 00:15:56;;;;;;;17.70;11.10;;;;;;;20.53;50.45;97646.71;1804680;79;25750;-84
2022/03/30 00:18:22;;;;;;;17.42;11.25;;;;;;;20.51;50.58;97640.16;1804868;78;25611;-84
2022/03/30 00:20:48;;;;;;;19.15;11.73;;;;;;;20.50;50.54;97645.55;1804704;79;25713;-83
2022/03/30 00:23:14;;;;;;;15.38;10.78;;;;;;;20.49;50.53;97641.77;1804878;78;25434;-83
2022/03/30 00:25:40;;;;;;;16.40;10.68;;;;;;;20.50;50.54;97645.55;1804885;78;27374;-84
2022/03/30 00:28:08;;;;;;;19.05;11.65;;;;;;;20.51;50.51;97644.33;1804846;79;25750;-83
2022/03/30 00:30:34;;;;;;;16.17;10.55;;;;;;;20.50;50.46;97633.61;1804534;78;25659;-85
2022/03/30 00:33:00;;;;;;;18.00;11.30;;;;;;;20.49;50.51;97641.16;1804908;78;25743;-85
2022/03/30 00:35:26;;;;;;;17.45;11.10;;;;;;;20.48;50.48;97632.63;1804781;78;25656;-84
2022/03/30 00:37:52;;;;;;;16.15;10.53;;;;;;;20.49;50.55;97633.42;1804927;79;28261;-85
2022/03/30 00:40:18;;;;;;;17.62;11.35;;;;;;;20.48;50.53;97634.02;1804442;78;25989;-85
2022/03/30 00:42:45;;;;;;;19.35;11.43;;;;;;;20.47;50.49;97626.88;1804807;79;25478;-85
2022/03/30 00:45:15;;;;;;;17.10;10.98;;;;;;;20.47;50.49;97622.70;1804869;79;25680;-85
2022/03/30 00:47:42;;;;;;;;;;;;;;;20.46;50.55;97623.11;1807554;78;25578;-85
2022/03/30 00:50:11;;;;;;;16.70;10.70;;;;;;;20.43;50.58;97619.92;1804842;79;27323;-85
2022/03/30 00:52:38;;;;;;;17.32;11.30;;;;;;;20.42;50.50;97622.53;1804722;78;25711;-85
2022/03/30 00:55:06;;;;;;;18.67;10.85;;;;;;;20.42;50.40;97627.28;1804808;79;25469;-86
2022/03/30 00:57:36;;;;;;;17.62;11.53;;;;;;;20.42;50.39;97630.87;1804839;79;25763;-85
2022/03/30 01:00:05;;;;;;;18.93;11.73;;;;;;;20.41;50.39;97626.48;1805098;78;25576;-85
2022/03/30 01:02:32;;;;;;;17.33;11.53;;;;;;;20.41;50.26;97620.92;1804991;78;28350;-86
2022/03/30 01:04:58;;;;;;;17.17;10.75;;;;;;;20.41;50.35;97634.84;1804708;78;25753;-86
2022/03/30 01:07:25;;;;;;;17.00;11.20;;;;;;;20.39;50.39;97628.09;1804905;78;25580;-85
2022/03/30 01:09:51;;;;;;;17.27;11.48;;;;;;;20.37;50.36;97621.55;1804563;79;25724;-85
2022/03/30 01:12:18;;;;;;;17.92;11.53;;;;;;;20.37;50.33;97622.94;1804742;78;25457;-85
2022/03/30 01:14:44;;;;;;;17.52;11.43;;;;;;;20.37;50.29;97613.79;1804811;78;27484;-85
2022/03/30 01:17:09;;;;;;;16.77;11.28;;;;;;;20.36;50.43;97613.02;1804916;79;25478;-86
2022/03/30 01:19:36;;;;;;;16.67;10.72;;;;;;;20.34;50.42;97609.84;1804932;79;25655;-86
2022/03/30 01:22:02;;;;;;;16.37;10.78;;;;;;;20.36;50.40;97618.58;1804825;78;25625;-85
2022/03/30 01:24:28;;;;;;;17.45;11.63;;;;;;;20.34;50.56;97608.45;1804817;79;25650;-86
2022/03/30 01:26:54;;;;;;;17.07;11.15;;;;;;;20.34;50.49;97602.88;1804774;78;27347;-85
2022/03/30 01:32:26;;;;;;;17.23;11.60;;;;;;;20.33;50.53;97587.98;1804456;79;25584;-84
2022/03/30 01:35:00;;;;;;;15.65;10.93;;;;;;;20.33;50.54;97597.73;1804586;78;25883;-84
2022/03/30 01:37:29;;;;;;;16.77;10.70;;;;;;;20.30;50.61;97586.82;1804506;78;25587;-84
2022/03/30 01:39:59;;;;;;;17.17;10.82;;;;;;;20.30;50.64;97589.60;1804812;78;27360;-86
2022/03/30 01:42:27;;;;;;;17.50;10.95;;;;;;;20.28;50.62;97583.05;1804611;79;25449;-85
2022/03/30 01:44:54;;;;;;;16.57;10.20;;;;;;;20.27;50.76;97582.06;1804691;78;25671;-85
2022/03/30 01:47:21;;;;;;;15.38;10.53;;;;;;;20.26;50.78;97573.54;1804739;78;25699;-86
2022/03/30 01:49:47;;;;;;;17.05;11.43;;;;;;;20.26;50.72;97577.71;1804875;79;25684;-84
2022/03/30 01:52:16;;;;;;;17.55;11.22;;;;;;;20.25;50.82;97576.91;1804777;79;27350;-84
2022/03/30 01:54:43;;;;;;;15.90;10.82;;;;;;;20.25;50.81;97569.16;1804590;78;25567;-84
2022/03/30 01:57:14;;;;;;;16.70;10.58;;;;;;;20.26;50.87;97565.97;1804740;79;25722;-84
2022/03/30 01:59:45;;;;;;;14.83;10.23;;;;;;;20.25;50.79;97565.78;1804421;79;25767;-84
2022/03/30 02:02:12;;;;;;;;;;;;;;;20.24;50.89;97562.02;1807352;78;25548;-84
2022/03/30 02:04:38;;;;;;;17.57;10.95;;;;;;;20.24;50.89;97562.02;1805077;79;28007;-84
2022/03/30 02:07:10;;;;;;;15.98;10.38;;;;;;;20.21;50.84;97566.41;1804481;78;25636;-84
2022/03/30 02:09:38;;;;;;;15.23;9.88;;;;;;;20.20;50.92;97563.41;1804588;79;25715;-85
2022/03/30 02:12:06;;;;;;;17.12;10.90;;;;;;;20.19;51.02;97568.80;1804858;78;25686;-84
2022/03/30 02:14:33;;;;;;;15.48;10.28;;;;;;;20.20;51.07;97568.98;1802555;78;25635;-85
2022/03/30 02:16:59;;;;;;;15.80;10.30;;;;;;;20.20;51.04;97566.81;1802580;79;27423;-85
2022/03/30 02:19:25;;;;;;;15.68;10.20;;;;;;;20.20;51.07;97562.02;1802592;79;25470;-86
2022/03/30 02:21:51;;;;;;;16.35;11.03;;;;;;;20.18;51.08;97562.43;1802826;78;25553;-85
2022/03/30 02:24:17;;;;;;;15.93;10.63;;;;;;;20.18;51.11;97553.31;1802632;79;26581;-85
2022/03/30 02:26:43;;;;;;;16.10;10.05;;;;;;;20.17;51.23;97555.30;1802609;79;25775;-85
2022/03/30 02:29:09;;;;;;;15.43;10.15;;;;;;;20.16;51.21;97556.50;1802717;78;27284;-86
2022/03/30 02:31:35;;;;;;;15.65;9.80;;;;;;;20.16;51.25;97555.70;1802700;79;25446;-85
2022/03/30 02:34:01;;;;;;;15.93;10.85;;;;;;;20.15;51.26;97554.13;1802673;79;25623;-86
2022/03/30 02:36:27;;;;;;;14.23;10.18;;;;;;;20.14;51.28;97553.33;1802724;79;25687;-86
2022/03/30 02:38:53;;;;;;;15.00;10.28;;;;;;;20.15;51.26;97546.55;1802663;79;25411;-86
2022/03/30 02:41:19;;;;;;;15.75;10.53;;;;;;;20.13;51.27;97551.75;1802729;79;27435;-86
2022/03/30 02:43:45;;;;;;;15.63;10.48;;;;;;;20.12;51.33;97554.31;1802578;79;25703;-85
2022/03/30 02:46:11;;;;;;;14.75;10.35;;;;;;;20.12;51.32;97550.14;1802648;78;25663;-86
2022/03/30 02:48:38;;;;;;;16.75;10.58;;;;;;;20.13;51.33;97548.17;1802602;78;25724;-86
2022/03/30 02:51:07;;;;;;;15.18;9.83;;;;;;;20.11;51.33;97554.13;1802357;78;25735;-86
2022/03/30 02:53:33;;;;;;;15.80;10.55;;;;;;;20.10;51.34;97552.56;1802616;79;28254;-86
2022/03/30 02:56:00;;;;;;;15.63;10.58;;;;;;;20.12;51.42;97549.38;1802606;78;25577;-85
2022/03/30 02:58:28;;;;;;;15.88;10.40;;;;;;;20.09;51.33;97548.80;1802632;78;25696;-84
2022/03/30 03:00:54;;;;;;;15.48;10.82;;;;;;;20.09;51.40;97545.39;1802606;78;25688;-84
2022/03/30 03:03:22;;;;;;;15.55;10.68;;;;;;;20.09;51.38;97553.73;1802500;79;25425;-84
2022/03/30 03:05:48;;;;;;;15.78;10.55;;;;;;;20.09;51.40;97550.95;1802567;79;27463;-84
2022/03/30 03:08:14;;;;;;;14.60;10.50;;;;;;;20.08;51.39;97550.77;1802606;79;25640;-84
2022/03/30 03:10:44;;;;;;;15.60;10.93;;;;;;;20.09;51.40;97552.97;1802744;78;25643;-83
2022/03/30 03:13:11;;;;;;;14.78;10.40;;;;;;;20.09;51.37;97548.80;1803260;78;25764;-83
2022/03/30 03:15:38;;;;;;;14.53;9.95;;;;;;;20.07;51.37;97549.20;1804731;78;25644;-83
2022/03/30 03:18:05;;;;;;;15.90;10.35;;;;;;;20.08;51.42;97549.97;1804887;78;27319;-84
2022/03/30 03:20:33;;;;;;;16.50;10.60;;;;;;;20.06;51.42;97542.03;1804804;79;25631;-84
2022/03/30 03:23:02;;;;;;;17.32;10.98;;;;;;;20.05;51.44;97537.67;1804851;78;25638;-84
2022/03/30 03:25:31;;;;;;;16.82;11.35;;;;;;;20.07;51.44;97540.86;1804920;78;25842;-84
2022/03/30 03:27:58;;;;;;;16.47;11.07;;;;;;;20.06;51.38;97532.30;1804883;79;25638;-84
2022/03/30 03:30:24;;;;;;;15.35;10.58;;;;;;;20.06;51.35;97531.71;1804805;79;27350;-84
2022/03/30 03:32:50;;;;;;;16.27;10.78;;;;;;;20.06;51.38;97530.32;1804936;79;25579;-83
2022/03/30 03:35:16;;;;;;;17.77;11.15;;;;;;;20.03;51.39;97528.35;1804953;79;25632;-84
2022/03/30 03:37:43;;;;;;;17.23;11.35;;;;;;;20.02;51.38;97531.53;1804756;79;26430;-84
2022/03/30 03:40:11;;;;;;;16.27;11.35;;;;;;;20.01;51.42;97532.72;1804921;79;25578;-84
2022/03/30 03:42:38;;;;;;;16.97;10.65;;;;;;;20.00;51.41;97531.91;1804859;78;27348;-84
2022/03/30 03:45:06;;;;;;;16.40;10.88;;;;;;;20.00;51.39;97526.97;1804745;78;25819;-84
2022/03/30 03:47:33;;;;;;;16.77;10.60;;;;;;;20.00;51.44;97531.91;1804887;78;25575;-85
2022/03/30 03:49:59;;;;;;;15.95;11.12;;;;;;;19.99;51.44;97529.53;1804848;78;25622;-84
2022/03/30 03:52:26;;;;;;;16.07;10.40;;;;;;;20.00;51.36;97536.08;1804856;78;25583;-86
2022/03/30 03:54:52;;;;;;;16.60;10.60;;;;;;;19.98;51.44;97530.74;1804840;78;27360;-86
2022/03/30 03:57:18;;;;;;;17.82;11.70;;;;;;;19.99;51.43;97542.05;1804827;79;25687;-85
2022/03/30 03:59:44;;;;;;;18.48;11.65;;;;;;;19.98;51.40;97539.89;1804956;78;25647;-86
2022/03/30 04:02:10;;;;;;;16.52;11.12;;;;;;;19.97;51.41;97539.67;1804925;79;26452;-86
2022/03/30 04:04:38;;;;;;;17.50;10.98;;;;;;;19.98;51.42;97537.69;1804906;79;25635;-86
2022/03/30 04:07:05;;;;;;;17.98;11.03;;;;;;;19.97;51.48;97541.06;1804790;78;27366;-86
2022/03/30 04:09:31;;;;;;;19.92;12.30;;;;;;;19.96;51.47;97536.70;1804950;79;25651;-86
2022/03/30 04:11:57;;;;;;;19.07;12.03;;;;;;;19.96;51.39;97536.70;1805194;79;25649;-86
2022/03/30 04:14:24;;;;;;;18.98;12.20;;;;;;;19.96;51.45;97535.31;1804587;79;26639;-86
2022/03/30 04:16:50;;;;;;;15.28;10.75;;;;;;;19.96;51.44;97526.98;1804834;78;25406;-85
2022/03/30 04:19:17;;;;;;;18.82;11.50;;;;;;;19.94;51.42;97527.38;1804891;79;27501;-85
2022/03/30 04:21:43;;;;;;;17.05;11.43;;;;;;;19.95;51.43;97528.18;1804821;78;25592;-84
2022/03/30 04:24:10;;;;;;;17.15;11.10;;;;;;;19.94;51.45;97531.55;1804953;78;25599;-84
2022/03/30 04:26:38;;;;;;;19.25;11.78;;;;;;;19.94;51.41;97530.16;1804758;79;26681;-83
2022/03/30 04:29:05;;;;;;;18.73;11.38;;;;;;;19.93;51.39;97531.37;1804863;78;25666;-84
2022/03/30 04:31:32;;;;;;;19.17;11.95;;;;;;;19.93;51.40;97531.95;1801583;78;27414;-84
2022/03/30 04:33:58;;;;;;;19.67;12.05;;;;;;;19.93;51.43;97533.34;1804651;78;25426;-84
2022/03/30 04:36:25;;;;;;;16.32;11.70;;;;;;;19.92;51.44;97532.55;1804818;78;25646;-84
2022/03/30 04:38:51;;;;;;;17.17;11.93;;;;;;;19.93;51.41;97530.56;1804807;78;26506;-85
2022/03/30 04:41:17;;;;;;;16.90;11.10;;;;;;;19.92;51.42;97524.20;1804824;78;25665;-84
2022/03/30 04:43:44;;;;;;;17.57;11.43;;;;;;;19.92;51.45;97522.05;1804377;79;27387;-84
2022/03/30 04:46:11;;;;;;;18.90;11.73;;;;;;;19.91;51.49;97520.44;1804669;79;25787;-84
2022/03/30 04:48:38;;;;;;;17.20;11.78;;;;;;;19.92;51.55;97529.77;1804523;78;25462;-92
2022/03/30 04:51:05;;;;;;;17.85;12.35;;;;;;;19.90;51.48;97528.59;1804962;78;26384;-85
2022/03/30 04:53:31;;;;;;;18.40;11.60;;;;;;;19.91;51.53;97535.14;1804844;78;25435;-85
2022/03/30 04:55:57;;;;;;;16.82;11.25;;;;;;;19.90;51.57;97527.20;1804828;79;27605;-84
2022/03/30 04:58:23;;;;;;;19.42;11.40;;;;;;;19.89;51.59;97525.63;1804823;79;25403;-85
2022/03/30 05:00:50;;;;;;;18.17;11.75;;;;;;;19.88;51.60;97528.20;1804835;79;25755;-85
2022/03/30 05:03:16;;;;;;;18.42;11.80;;;;;;;19.89;51.63;97531.96;1804883;79;25700;-85
2022/03/30 05:05:42;;;;;;;17.95;11.75;;;;;;;19.90;51.61;97524.42;1804761;79;25468;-85
2022/03/30 05:08:08;;;;;;;19.85;12.23;;;;;;;19.90;51.74;97522.45;1804839;78;28154;-85
2022/03/30 05:10:35;;;;;;;18.85;11.88;;;;;;;19.90;51.70;97527.20;1804783;78;25799;-85
2022/03/30 05:13:04;;;;;;;16.80;11.18;;;;;;;19.89;51.74;97522.23;1804801;79;25499;-85
2022/03/30 05:15:29;;;;;;;21.57;12.47;;;;;;;19.90;51.82;97523.84;1802314;79;25608;-86
2022/03/30 05:17:56;;;;;;;19.40;11.90;;;;;;;19.89;51.89;97514.52;1802741;78;25428;-85
2022/03/30 05:20:23;;;;;;;21.85;13.03;;;;;;;19.90;51.92;97522.45;1802792;79;27380;-85
2022/03/30 05:22:50;;;;;;;20.82;11.97;;;;;;;19.91;51.75;97522.63;1802126;78;25913;-85
2022/03/30 05:25:19;;;;;;;19.67;12.90;;;;;;;19.93;51.80;97518.86;1802620;79;25597;-85
2022/03/30 05:27:45;;;;;;;20.32;12.65;;;;;;;19.91;51.76;97515.68;1802171;78;25667;-85
2022/03/30 05:30:12;;;;;;;19.30;12.30;;;;;;;19.89;51.81;97510.34;1802699;79;25623;-85
2022/03/30 05:32:38;;;;;;;18.20;12.55;;;;;;;19.88;51.82;97518.47;1802550;78;27419;-85
2022/03/30 05:35:05;;;;;;;20.05;12.33;;;;;;;19.88;51.83;97524.83;1802555;78;25469;-85
2022/03/30 05:37:32;;;;;;;21.00;12.80;;;;;;;19.87;51.84;97521.86;1802535;78;25617;-85
2022/03/30 05:39:58;;;;;;;20.82;12.73;;;;;;;19.87;51.84;97515.50;1802216;79;26594;-85
2022/03/30 05:42:25;;;;;;;19.40;12.05;;;;;;;19.88;51.85;97524.02;1802519;78;25634;-85
2022/03/30 05:44:51;;;;;;;20.10;12.50;;;;;;;19.87;51.86;97523.25;1802717;79;27478;-85
2022/03/30 05:47:18;;;;;;;21.77;12.70;;;;;;;19.87;51.91;97516.30;1802591;78;25630;-83
2022/03/30 05:49:44;;;;;;;20.72;12.73;;;;;;;19.88;51.86;97519.27;1802597;79;25663;-84
2022/03/30 05:52:11;;;;;;;18.62;12.25;;;;;;;19.88;51.88;97515.09;1802437;79;25765;-84
2022/03/30 05:54:38;;;;;;;18.00;11.70;;;;;;;19.88;51.91;97518.47;1802728;78;25620;-84
2022/03/30 05:57:07;;;;;;;22.80;12.40;;;;;;;19.88;51.90;97512.91;1802323;79;28484;-84
2022/03/30 05:59:37;;;;;;;18.55;11.88;;;;;;;19.90;51.98;97513.30;1802275;78;25385;-84
2022/03/30 06:02:06;;;;;;;18.52;11.53;;;;;;;19.93;51.97;97513.88;1802864;78;25605;-83
2022/03/30 06:04:33;;;;;;;17.95;11.83;;;;;;;19.92;52.02;97512.31;1802695;78;26262;-83
2022/03/30 06:07:00;;;;;;;19.15;12.13;;;;;;;19.93;52.01;97514.69;1802669;78;25727;-84
2022/03/30 06:09:27;;;;;;;19.77;12.25;;;;;;;19.93;52.20;97513.88;1802599;79;26847;-84
2022/03/30 06:11:54;;;;;;;18.80;12.37;;;;;;;19.93;52.20;97516.66;1802397;78;25455;-83
2022/03/30 06:14:21;;;;;;;18.77;12.33;;;;;;;19.95;52.25;97517.06;1803254;79;25410;-83
2022/03/30 06:16:48;;;;;;;20.62;12.23;;;;;;;19.96;52.44;97524.20;1804964;78;25637;-83
2022/03/30 06:19:15;;;;;;;19.27;12.70;;;;;;;19.97;52.62;97520.20;1804939;79;25615;-84
2022/03/30 06:21:42;;;;;;;19.67;12.33;;;;;;;19.97;52.63;97522.98;1805102;79;27341;-83
2022/03/30 06:24:13;;;;;;;19.17;12.33;;;;;;;19.98;52.89;97525.19;1804508;78;25410;-83
2022/03/30 06:26:41;;;;;;;18.57;12.07;;;;;;;19.97;52.91;97525.77;1804922;78;25669;-83
2022/03/30 06:29:08;;;;;;;22.22;13.78;;;;;;;20.00;53.06;97522.80;1804875;79;25700;-83
2022/03/30 06:31:35;;;;;;;21.55;13.38;;;;;;;19.99;53.15;97517.02;1804904;79;25379;-84
2022/03/30 06:34:03;;;;;;;20.08;13.10;;;;;;;20.00;53.19;97520.02;1804639;78;27431;-84
2022/03/30 06:36:31;;;;;;;19.85;13.38;;;;;;;20.01;53.32;97516.03;1804794;79;25622;-84
2022/03/30 06:38:58;;;;;;;21.95;13.80;;;;;;;20.04;53.23;97522.20;1804587;78;25608;-84
2022/03/30 06:41:25;;;;;;;22.90;13.83;;;;;;;20.04;53.24;97522.97;1804873;79;26484;-84
2022/03/30 06:43:52;;;;;;;21.25;13.90;;;;;;;20.06;53.24;97519.78;1804664;79;25651;-83
2022/03/30 06:46:20;;;;;;;19.77;13.10;;;;;;;20.06;53.42;97515.03;1804843;79;27355;-85
2022/03/30 06:48:46;;;;;;;20.45;12.98;;;;;;;20.09;53.54;97512.64;1804803;79;25592;-83
2022/03/30 06:51:16;;;;;;;20.52;13.22;;;;;;;20.08;53.62;97510.45;1804922;79;25641;-84
2022/03/30 06:53:43;;;;;;;19.13;13.47;;;;;;;20.11;53.70;97517.18;1805206;78;25689;-83
2022/03/30 06:56:10;;;;;;;21.02;13.62;;;;;;;20.12;53.64;97513.22;1805010;78;25449;-84
2022/03/30 06:58:37;;;;;;;23.83;14.73;;;;;;;20.15;53.59;97511.02;1801635;79;27368;-83
2022/03/30 07:01:04;;;;;;;20.55;14.40;;;;;;;20.16;53.54;97516.17;1804905;79;25478;-83
2022/03/30 07:03:30;;;;;;;22.93;14.60;;;;;;;20.20;53.51;97513.34;1805118;79;25647;-85
2022/03/30 07:05:56;;;;;;;23.52;14.35;;;;;;;20.23;53.40;97512.54;1804727;78;25775;-83
2022/03/30 07:11:09;;;;;;;22.40;14.05;;;;;;;20.29;53.34;97508.72;1804629;79;27432;-85
2022/03/30 07:13:35;;;;;;;24.00;14.35;;;;;;;20.31;53.38;97511.30;1804826;79;25820;-86
2022/03/30 07:16:02;;;;;;;24.50;14.87;;;;;;;20.35;53.29;97506.31;1802754;79;25954;-86
2022/03/30 07:18:28;;;;;;;22.98;14.60;;;;;;;20.38;53.29;97510.44;1802288;78;25754;-86
2022/03/30 07:20:55;;;;;;;20.88;14.50;;;;;;;20.40;53.31;97509.45;1802770;79;25427;-86
2022/03/30 07:23:23;;;;;;;21.65;14.47;;;;;;;20.44;53.23;97512.98;1802349;79;27312;-86
2022/03/30 07:25:51;;;;;;;22.48;14.50;;;;;;;20.46;53.19;97513.97;1802238;79;25597;-86
2022/03/30 07:28:18;;;;;;;23.18;14.70;;;;;;;20.48;53.06;97514.95;1802717;78;25655;-86
2022/03/30 07:30:48;;;;;;;21.33;14.45;;;;;;;20.51;53.01;97509.95;1802661;78;26523;-86
2022/03/30 07:33:14;;;;;;;22.80;14.63;;;;;;;20.51;53.02;97509.37;1802186;79;25387;-85
2022/03/30 07:35:46;;;;;;;20.92;13.48;;;;;;;20.53;52.94;97514.53;1802695;79;27504;-86
2022/03/30 07:38:08;;;;;;;21.62;14.60;;;;;;;20.55;52.96;97512.91;1801516;79;25565;-86
2022/03/30 07:40:35;;;;;;;23.65;14.65;;;;;;;20.56;52.75;97515.09;1802721;78;25576;-85
2022/03/30 07:43:02;;;;;;;20.08;14.00;;;;;;;20.56;52.70;97519.27;1802255;79;26652;-86
2022/03/30 07:45:28;;;;;;;21.05;14.40;;;;;;;20.56;52.60;97518.66;1802579;79;25410;-86
2022/03/30 07:47:55;;;;;;;21.60;14.23;;;;;;;20.56;52.52;97518.66;1802624;78;26859;-86
2022/03/30 07:50:21;;;;;;;21.23;14.13;;;;;;;20.59;52.41;97516.27;1802585;78;25743;-86
2022/03/30 07:52:48;;;;;;;21.33;13.70;;;;;;;20.59;52.42;97513.48;1800817;79;25672;-86
2022/03/30 07:55:15;;;;;;;21.10;13.62;;;;;;;20.58;52.29;97513.30;1801510;79;25948;-86
2022/03/30 07:57:42;;;;;;;21.65;14.20;;;;;;;20.61;52.20;97516.66;1802602;79;25383;-87
2022/03/30 08:00:15;;;;;;;21.90;13.95;;;;;;;20.61;52.19;97516.66;1802592;79;27197;-86
2022/03/30 08:02:41;;;;;;;23.98;14.20;;;;;;;20.63;52.18;97508.67;1802042;78;25612;-86
2022/03/30 08:05:13;;;;;;;21.00;13.18;;;;;;;20.63;52.16;97508.08;1802736;79;25648;-91
2022/03/30 08:07:49;;;;;;;22.27;13.43;;;;;;;20.65;52.13;97512.64;1802494;79;25959;-90
2022/03/30 08:10:15;;;;;;;21.55;13.85;;;;;;;20.65;52.03;97506.27;1802486;78;25567;-91
2022/03/30 08:12:47;;;;;;;21.90;13.48;;;;;;;20.66;51.94;97498.91;1802555;79;27519;-90
2022/03/30 13:03:31;;;;;;;25.02;18.35;;;;;;;20.75;56.43;97242.95;1726004;82;26945;-88
2022/03/30 13:06:18;;;;;;;23.40;18.95;;;;;;;20.74;56.51;97242.16;1729490;81;25686;-90
2022/03/30 13:08:39;;;;;;;21.33;17.73;;;;;;;20.77;56.51;97238.53;1732350;82;25500;-90
2022/03/30 13:11:07;;;;;;;21.30;17.40;;;;;;;20.77;56.73;97244.70;1756655;80;26320;-90
2022/03/30 13:13:40;;;;;;;22.20;17.85;;;;;;;20.77;56.64;97234.36;1764744;81;25787;-92
2022/03/30 13:16:09;;;;;;;22.67;17.65;;;;;;;20.77;56.63;97228.80;1766621;80;27382;-89
2022/03/30 13:18:37;;;;;;;25.85;18.02;;;;;;;20.78;56.79;97226.19;1769599;81;25700;-91
2022/03/30 13:21:15;;;;;;;21.40;17.70;;;;;;;20.77;56.85;97223.22;1769650;80;25696;-92
2022/03/30 13:24:15;;;;;;;24.32;18.17;;;;;;;20.78;56.95;97217.84;1738287;82;25889;-89
2022/03/30 13:26:45;;;;;;;24.40;17.27;;;;;;;20.80;57.14;97214.62;1738478;82;25656;-90
2022/03/30 13:29:12;;;;;;;21.82;18.02;;;;;;;20.80;57.30;97208.47;1738385;82;27439;-89
2022/03/30 13:31:43;;;;;;;21.33;16.93;;;;;;;20.80;57.28;97193.75;1738151;82;26280;-90
2022/03/30 13:34:08;;;;;;;22.93;18.15;;;;;;;20.83;57.44;97199.08;1738091;80;25767;-91
2022/03/30 13:36:35;;;;;;;22.05;17.82;;;;;;;20.85;57.57;97196.08;1738078;82;25808;-90
2022/03/30 13:39:03;;;;;;;20.95;17.73;;;;;;;20.86;57.61;97196.84;1738443;82;26408;-88
2022/03/30 13:41:30;;;;;;;21.37;17.37;;;;;;;20.86;57.87;97189.30;1738533;82;27376;-88
2022/03/30 13:43:57;;;;;;;21.80;17.87;;;;;;;20.88;58.02;97190.27;1738226;82;25688;-89
2022/03/30 13:46:24;;;;;;;19.17;16.20;;;;;;;20.90;58.12;97193.43;1738426;82;25700;-89
2022/03/30 13:48:51;;;;;;;18.20;16.15;;;;;;;20.90;58.29;97190.05;1738047;82;25768;-89
2022/03/30 13:51:18;;;;;;;19.92;16.95;;;;;;;20.94;58.44;97183.05;1738451;82;25847;-89
2022/03/30 13:53:45;;;;;;;19.80;17.20;;;;;;;21.00;58.66;97176.39;1739378;82;27378;-90
2022/03/30 13:56:13;;;;;;;18.90;16.85;;;;;;;21.05;58.57;97173.15;1739614;82;25813;-92
2022/03/30 13:58:40;;;;;;;20.27;16.62;;;;;;;21.12;58.73;97173.03;1739470;82;25780;-94
2022/03/30 14:01:08;;;;;;;20.20;17.35;;;;;;;21.17;58.83;97172.56;1739441;82;26707;-91
2022/03/30 14:03:35;;;;;;;21.27;17.95;;;;;;;21.22;58.86;97177.47;1736986;82;25744;-92
2022/03/30 14:06:01;;;;;;;22.32;17.60;;;;;;;21.23;58.99;97169.28;1718151;82;28422;-91
2022/03/30 14:08:29;;;;;;;22.32;18.07;;;;;;;21.25;59.11;97171.05;1716407;83;25401;-91
2022/03/30 14:10:57;;;;;;;21.25;18.52;;;;;;;21.27;59.10;97177.00;1716548;83;25464;-91
2022/03/30 14:13:23;;;;;;;21.97;18.00;;;;;;;21.27;59.29;97167.25;1716513;83;25698;-91
2022/03/30 14:15:50;;;;;;;20.70;18.50;;;;;;;21.27;59.30;97158.89;1740950;81;25752;-90
2022/03/30 14:18:17;;;;;;;21.10;18.00;;;;;;;21.25;59.24;97158.52;1744145;81;27394;-91
2022/03/30 14:20:45;;;;;;;21.17;17.70;;;;;;;21.24;59.35;97157.72;1744398;82;25684;-90
2022/03/30 14:23:12;;;;;;;20.37;17.42;;;;;;;21.22;59.46;97157.37;1745134;82;25714;-91
2022/03/30 14:25:39;;;;;;;20.45;17.62;;;;;;;21.21;59.39;97157.16;1745072;82;26449;-91
2022/03/30 14:28:08;;;;;;;22.52;17.73;;;;;;;21.20;59.45;97156.99;1745106;82;25717;-89
2022/03/30 14:30:36;;;;;;;19.85;17.75;;;;;;;21.19;59.52;97155.43;1745052;82;27425;-89
2022/03/30 14:33:04;;;;;;;20.52;17.55;;;;;;;21.17;59.31;97157.24;1744798;82;25742;-89
2022/03/30 14:35:33;;;;;;;21.50;17.85;;;;;;;21.16;59.41;97158.44;1745301;82;25764;-90
2022/03/30 14:38:04;;;;;;;22.95;18.23;;;;;;;21.15;59.50;97156.07;1744801;82;26202;-90
2022/03/30 14:40:32;;;;;;;21.60;17.77;;;;;;;21.14;59.44;97155.89;1745196;82;25672;-92
2022/03/30 14:42:59;;;;;;;20.32;17.65;;;;;;;21.12;59.35;97164.67;1745238;82;26757;-91
2022/03/30 14:45:26;;;;;;;20.62;17.42;;;;;;;21.11;59.46;97160.92;1745010;82;26346;-92
2022/03/30 14:47:52;;;;;;;19.75;17.02;;;;;;;21.09;59.37;97160.54;1745169;82;25761;-91
2022/03/30 14:50:18;;;;;;;20.57;17.17;;;;;;;21.10;59.37;97161.52;1745230;82;25750;-93
2022/03/30 14:52:45;;;;;;;23.83;17.37;;;;;;;21.09;59.40;97160.54;1744988;82;25733;-93
2022/03/30 14:55:14;;;;;;;18.37;15.95;;;;;;;21.06;59.41;97159.39;1745337;82;27337;-93
2022/03/30 14:57:42;;;;;;;19.32;16.50;;;;;;;21.04;59.36;97154.88;1745353;82;25789;-93
2022/03/30 15:00:11;;;;;;;19.25;16.35;;;;;;;21.02;59.26;97158.67;1745382;82;25725;-95
2022/03/30 15:02:40;;;;;;;20.75;16.37;;;;;;;21.00;59.25;97151.33;1745707;82;26381;-95
2022/03/30 15:05:09;;;;;;;19.30;15.88;;;;;;;21.00;59.40;97149.34;1763447;79;25785;-95
2022/03/30 15:07:35;;;;;;;19.27;15.85;;;;;;;20.99;59.26;97157.53;1798485;79;27395;-95
2022/03/30 15:10:06;;;;;;;18.95;16.12;;;;;;;20.97;59.37;97150.19;1798731;79;25729;-96
2022/03/30 15:12:33;;;;;;;19.45;15.90;;;;;;;20.95;59.34;97148.42;1798764;79;25744;-95
2022/03/30 15:15:00;;;;;;;21.48;16.27;;;;;;;20.95;59.44;97142.08;1798519;79;26451;-95
2022/03/30 15:17:27;;;;;;;19.12;15.98;;;;;;;20.94;59.42;97148.24;1798817;79;25243;-96
2022/03/30 15:19:53;;;;;;;20.30;16.27;;;;;;;20.93;59.47;97141.88;1798429;79;27423;-96
2022/03/30 15:22:20;;;;;;;20.50;16.82;;;;;;;20.92;59.39;97143.09;1798731;79;25660;-96
2022/03/30 15:24:47;;;;;;;19.05;16.10;;;;;;;20.90;59.57;97142.72;1798712;79;25992;-93
2022/03/30 15:27:13;;;;;;;18.60;15.93;;;;;;;20.90;59.55;97137.75;1798546;79;25669;-94
2022/03/30 15:29:40;;;;;;;18.62;15.68;;;;;;;20.92;59.65;97131.16;1798415;79;25725;-94
2022/03/30 15:32:07;;;;;;;19.35;16.02;;;;;;;20.95;59.68;97133.11;1798450;79;28262;-93
2022/03/30 15:34:34;;;;;;;20.75;16.75;;;;;;;21.00;59.70;97123.48;1798405;79;25735;-95
2022/03/30 15:37:04;;;;;;;19.60;16.62;;;;;;;21.04;59.76;97113.10;1798199;79;25697;-94
2022/03/30 15:39:29;;;;;;;18.80;16.62;;;;;;;21.09;59.68;97114.59;1797875;79;25665;-94
2022/03/30 15:41:57;;;;;;;20.15;16.87;;;;;;;21.10;59.64;97116.95;1798622;79;25797;-93
2022/03/30 15:44:24;;;;;;;19.55;17.48;;;;;;;21.11;59.70;97115.77;1798021;79;27448;-93
2022/03/30 15:46:51;;;;;;;19.67;17.55;;;;;;;21.12;59.72;97109.56;1772232;79;25718;-93
2022/03/30 15:49:17;;;;;;;20.72;18.52;;;;;;;21.12;59.76;97110.96;1715016;82;25906;-94
2022/03/30 15:51:45;;;;;;;20.17;18.07;;;;;;;21.11;59.68;97115.77;1714816;82;26550;-92
2022/03/30 15:54:11;;;;;;;20.12;17.92;;;;;;;21.11;59.74;97110.19;1714741;81;25756;-93
2022/03/30 15:56:37;;;;;;;21.17;18.60;;;;;;;21.09;59.58;97105.64;1714673;82;27406;-92
2022/03/30 15:59:04;;;;;;;22.30;18.87;;;;;;;21.11;59.58;97111.59;1714800;82;25707;-91
2022/03/30 16:01:32;;;;;;;21.00;18.70;;;;;;;21.11;59.79;97110.78;1714901;82;25760;-92
2022/03/30 16:03:59;;;;;;;20.92;18.73;;;;;;;21.08;59.77;97105.47;1711844;81;25739;-91
2022/03/30 16:06:25;;;;;;;21.68;19.37;;;;;;;21.07;59.91;97113.63;1744145;80;25790;-92
2022/03/30 16:08:55;;;;;;;20.85;18.00;;;;;;;21.05;60.04;97111.28;1772347;80;27449;-92
2022/03/30 16:14:08;;;;;;;22.30;19.48;;;;;;;21.02;60.13;97115.52;1782297;80;26419;-93